Frankfurt, Germany
Current Conditions -  °F | °C
As of 6:20 AM on Saturday 25 Oct 2014 (Local Time) from EDDB Reporting Station
Scattered Clouds Scattered Clouds  
Wind Chill: 32°   Ceiling: Unl
Heat Index: 37°   Visibility: 6mi
Dew Point: 36°   Wind: 7mph
Humidity: 93%   Direction: 130°SE
Pressure: 30.12"   Gusts: NA
Location:  52.34°N, 14.55°E
Report Text: EDDB 250420Z 13006KT 9999 SCT005 03/02 Q1020 TEMPO BKN005
Loading
Personal Weather Stations






























Interactive Weather Map
Tropical Storm Tracking
New forecast layout! Learn more

10-Day Weather Forecast

Advertisements
Track Severe Weather on mobile